createdAt,value
2019-05-05T04:14:09.618Z,97643.57
2019-05-05T04:19:13.863Z,97657.73
2019-05-05T04:24:15.483Z,97666.36
2019-05-05T04:29:16.460Z,97670.50
2019-05-05T04:34:17.315Z,97673.45
2019-05-05T04:39:18.333Z,97688.22
2019-05-05T04:44:19.200Z,97694.55
2019-05-05T04:49:23.485Z,97696.31
2019-05-05T04:54:33.511Z,97699.67
2019-05-05T04:59:35.582Z,97712.63
2019-05-05T05:04:47.821Z,97709.31
2019-05-05T05:09:48.687Z,97713.84
2019-05-05T05:14:49.559Z,97720.17
2019-05-05T05:19:50.577Z,97723.59
2019-05-05T05:24:53.960Z,97728.45
2019-05-05T05:29:54.827Z,97731.47
2019-05-05T05:34:55.685Z,97740.31
2019-05-05T05:40:04.253Z,97745.38
2019-05-05T05:45:23.771Z,97747.34
2019-05-05T05:50:38.965Z,97746.64
2019-05-05T05:55:39.852Z,97752.16
2019-05-05T06:00:44.083Z,97772.75
2019-05-05T06:05:45.120Z,97772.75
2019-05-05T06:10:45.976Z,97775.66
2019-05-05T06:15:46.850Z,97776.55
2019-05-05T06:20:48.080Z,97785.09
2019-05-05T06:25:49.019Z,97783.58
2019-05-05T06:30:49.892Z,97787.66
2019-05-05T06:35:50.764Z,97784.36
2019-05-05T06:41:10.329Z,97789.14
2019-05-05T06:46:14.608Z,97789.53
2019-05-05T06:51:15.616Z,97795.53
2019-05-05T06:56:16.576Z,97801.69
2019-05-05T07:01:17.444Z,97803.14
2019-05-05T07:06:18.357Z,97804.77
2019-05-05T07:11:19.269Z,97808.81
2019-05-05T07:16:20.288Z,97811.47
2019-05-05T07:21:23.726Z,97814.09
2019-05-05T07:26:24.436Z,97810.03
2019-05-05T07:31:25.336Z,97807.31
2019-05-05T07:36:40.145Z,97810.87
2019-05-05T07:41:41.337Z,97810.74
2019-05-05T07:46:43.957Z,97807.81
2019-05-05T07:51:45.052Z,97812.20
2019-05-05T07:56:45.957Z,97817.69
2019-05-05T08:01:46.929Z,97817.73
2019-05-05T08:06:47.807Z,97822.82
2019-05-05T08:11:48.681Z,97833.88
2019-05-05T08:16:57.460Z,97832.66
2019-05-05T08:21:58.456Z,97831.38
2019-05-05T08:27:04.665Z,97830.48
2019-05-05T08:32:23.801Z,97837.59
2019-05-05T08:37:25.167Z,97839.50
2019-05-05T08:42:26.024Z,97837.82
2019-05-05T08:47:28.310Z,97843.23
2019-05-05T08:52:29.535Z,97838.91
2019-05-05T08:57:30.412Z,97838.50
2019-05-05T09:02:33.278Z,97832.62
2019-05-05T09:07:34.574Z,97829.61
2019-05-05T09:12:35.536Z,97827.38
2019-05-05T09:17:36.516Z,97831.50
2019-05-05T09:22:37.513Z,97836.58
2019-05-05T09:27:40.359Z,97847.09
2019-05-05T09:32:41.165Z,97840.59
2019-05-05T09:37:44.151Z,97844.16
2019-05-05T09:42:45.236Z,97842.23
2019-05-05T09:47:46.120Z,97843.19
2019-05-05T09:52:46.988Z,97839.40
2019-05-05T09:57:47.856Z,97845.38
2019-05-05T10:02:49.716Z,97843.06
2019-05-05T10:07:50.616Z,97837.06
2019-05-05T10:12:52.964Z,97841.88
2019-05-05T10:17:54.361Z,97842.70
2019-05-05T10:22:55.333Z,97844.37
2019-05-05T10:27:56.910Z,97844.31
2019-05-05T10:32:58.915Z,97850.45
2019-05-05T10:38:00.320Z,97849.33
2019-05-05T10:43:01.576Z,97859.58
2019-05-05T10:48:04.080Z,97856.48
2019-05-05T10:53:05.242Z,97851.98
2019-05-05T10:58:06.122Z,97851.53
2019-05-05T11:03:07.191Z,97844.63
2019-05-05T11:08:08.176Z,97843.41
2019-05-05T11:13:09.053Z,97848.47
2019-05-05T11:18:09.937Z,97845.05
2019-05-05T11:23:10.904Z,97854.73
2019-05-05T11:28:11.896Z,97857.39
2019-05-05T11:33:29.976Z,97855.34
2019-05-05T11:38:30.848Z,97853.05
2019-05-05T11:43:33.731Z,97860.50
2019-05-05T11:48:34.822Z,97857.95
2019-05-05T11:53:36.192Z,97850.90
2019-05-05T11:58:37.259Z,97847.66
2019-05-05T12:03:38.311Z,97851.02
2019-05-05T12:08:39.213Z,97859.90
2019-05-05T12:13:40.189Z,97861.03
2019-05-05T12:18:41.514Z,97865.68
2019-05-05T12:23:44.223Z,97869.78
2019-05-05T12:28:49.786Z,97871.88
2019-05-05T12:33:50.747Z,97866.31
2019-05-05T12:38:54.655Z,97866.69
2019-05-05T12:43:55.276Z,97872.75
2019-05-05T12:48:58.225Z,97873.97
2019-05-05T12:53:59.097Z,97876.14
2019-05-05T12:59:03.686Z,97883.53
2019-05-05T13:04:04.966Z,97870.33
2019-05-05T13:09:07.313Z,97873.22
2019-05-05T13:14:09.724Z,97872.22
2019-05-05T13:19:16.601Z,97863.62
2019-05-05T13:24:19.881Z,97860.63
2019-05-05T13:29:20.745Z,97862.52
2019-05-05T13:34:21.631Z,97863.15
2019-05-05T13:39:24.587Z,97870.06
2019-05-05T13:44:43.883Z,97869.47
2019-05-05T13:49:45.163Z,97866.31
2019-05-05T13:54:46.125Z,97870.41
2019-05-05T13:59:47.133Z,97872.38
2019-05-05T14:04:48.013Z,97871.74
2019-05-05T14:09:48.888Z,97869.42
2019-05-05T14:14:49.868Z,97864.27
2019-05-05T14:20:04.464Z,97865.53
2019-05-05T14:24:56.082Z,97860.57
2019-05-05T14:29:59.525Z,97857.41
2019-05-05T14:35:05.616Z,97864.08
2019-05-05T14:40:06.793Z,97872.14
2019-05-05T14:45:10.587Z,97865.34
2019-05-05T14:50:11.847Z,97878.31
2019-05-05T14:55:14.065Z,97880.86
2019-05-05T15:00:17.399Z,97887.05
2019-05-05T15:05:36.290Z,97890.55
2019-05-05T15:10:56.538Z,97890.95
2019-05-05T15:15:57.971Z,97901.37
2019-05-05T15:20:59.339Z,97902.06
2019-05-05T15:26:00.655Z,97904.02
2019-05-05T15:31:01.737Z,97902.44
2019-05-05T15:36:04.654Z,97904.52
2019-05-05T15:41:05.695Z,97908.12
2019-05-05T15:46:06.664Z,97900.61
2019-05-05T15:51:07.646Z,97902.53
2019-05-05T15:56:08.524Z,97905.10
2019-05-05T16:01:09.625Z,97900.64
2019-05-05T16:06:10.604Z,97904.87
2019-05-05T16:11:11.504Z,97913.20
2019-05-05T16:16:23.683Z,97895.25
2019-05-05T16:21:38.632Z,97930.05
2019-05-05T16:26:39.512Z,97942.64
2019-05-05T16:31:40.380Z,97944.83
2019-05-05T16:36:41.263Z,97939.40
2019-05-05T16:41:43.383Z,97949.56
2019-05-05T16:46:44.628Z,97945.65
2019-05-05T16:51:47.419Z,97950.50
2019-05-05T16:56:48.292Z,97950.92
2019-05-05T17:01:49.152Z,97949.50
2019-05-05T17:06:50.050Z,97949.59
2019-05-05T17:12:09.019Z,97950.53
2019-05-05T17:17:14.655Z,97963.69
2019-05-05T17:22:17.427Z,97960.54
2019-05-05T17:27:18.304Z,97959.56
2019-05-05T17:32:19.179Z,97961.79
2019-05-05T17:37:20.152Z,97969.61
2019-05-05T17:42:34.893Z,97968.36
2019-05-05T17:47:44.226Z,97980.09
2019-05-05T17:52:47.551Z,97973.48
2019-05-05T17:57:58.908Z,97980.91
2019-05-05T18:02:51.197Z,97987.70
2019-05-05T18:07:53.552Z,97989.59
2019-05-05T18:13:14.820Z,97982.41
2019-05-05T18:18:16.343Z,97981.47
2019-05-05T18:23:17.390Z,97980.86
2019-05-05T18:28:20.072Z,97980.92
2019-05-05T18:33:21.664Z,97984.06
2019-05-05T18:38:24.710Z,97989.63
2019-05-05T18:43:30.679Z,98001.42
2019-05-05T18:48:31.918Z,98007.57
2019-05-05T18:53:34.164Z,98011.27
2019-05-05T18:58:35.866Z,98023.09
2019-05-05T19:03:44.430Z,98019.42
2019-05-05T19:08:54.149Z,98030.06
2019-05-05T19:13:50.096Z,98031.61
2019-05-05T19:18:50.951Z,98019.32
2019-05-05T19:23:53.663Z,98054.58
2019-05-05T19:28:54.888Z,98063.73
2019-05-05T19:33:56.059Z,98072.19
2019-05-05T19:38:57.154Z,98069.72
2019-05-05T19:43:57.967Z,98068.61
2019-05-05T19:49:15.320Z,98071.14
2019-05-05T19:54:16.492Z,98076.81
2019-05-05T19:59:17.347Z,98080.32
2019-05-05T20:04:18.211Z,98075.44
2019-05-05T20:09:19.184Z,98071.47
2019-05-05T20:14:20.046Z,98074.05
2019-05-05T20:19:21.098Z,98080.81
